Time;durP1;ratioP1;P1;durP2;ratioP2;P2;SDS_P1;SDS_P2;PMS_P1;PMS_P2;Temp;Humidity;BMP_temperature;BMP_pressure;BME280_temperature;BME280_humidity;BME280_pressure;Samples;Min_cycle;Max_cycle;Signal;HPM_P1;HPM_P2
2021/05/11 00:00:57;;;;;;;18.55;8.36;;;;;;;;;;355887;149;864993;-60
2021/05/11 00:01:59;;;;;;;15.89;7.29;;;;;;;;;;356979;147;857312;-60
2021/05/11 00:03:00;;;;;;;13.72;7.16;;;;;;;;;;356601;147;865214;-61
2021/05/11 00:04:02;;;;;;;16.69;7.90;;;;;;;;;;356333;149;866816;-60
2021/05/11 00:05:05;;;;;;;14.75;7.46;;;;;;;;;;358888;147;857447;-60
2021/05/11 00:06:07;;;;;;;15.96;7.42;;;;;;;;;;359391;147;858237;-60
2021/05/11 00:07:09;;;;;;;14.95;7.49;;;;;;;;;;359471;147;858808;-60
2021/05/11 00:08:10;;;;;;;13.44;6.98;;;;;;;;;;360093;147;857421;-60
2021/05/11 00:09:12;;;;;;;14.92;7.25;;;;;;;;;;346078;153;865231;-60
2021/05/11 00:10:14;;;;;;;10.23;6.78;;;;;;;;;;352494;151;857516;-60
2021/05/11 00:11:16;;;;;;;14.21;7.10;;;;;;;;;;358379;147;865157;-60
2021/05/11 00:12:18;;;;;;;12.48;6.97;;;;;;;;;;353857;147;866862;-60
2021/05/11 00:13:19;;;;;;;11.15;7.31;;;;;;;;;;354945;150;858896;-60
2021/05/11 00:14:21;;;;;;;11.95;7.03;;;;;;;;;;355976;150;865198;-60
2021/05/11 00:15:22;;;;;;;13.01;6.54;;;;;;;;;;357358;147;864990;-60
2021/05/11 00:16:24;;;;;;;10.33;6.38;;;;;;;;;;350157;150;866812;-60
2021/05/11 00:17:26;;;;;;;11.67;6.69;;;;;;;;;;350125;151;866793;-61
2021/05/11 00:18:27;;;;;;;14.65;6.77;;;;;;;;;;355984;147;865121;-60
2021/05/11 00:19:29;;;;;;;13.58;7.04;;;;;;;;;;355422;147;859010;-58
2021/05/11 00:20:32;;;;;;;13.09;6.86;;;;;;;;;;357870;147;858806;-60
2021/05/11 00:21:34;;;;;;;13.14;6.57;;;;;;;;;;349739;150;857835;-60
2021/05/11 00:22:35;;;;;;;17.08;7.56;;;;;;;;;;355209;147;858394;-60
2021/05/11 00:23:37;;;;;;;11.21;6.96;;;;;;;;;;356359;151;858769;-60
2021/05/11 00:24:39;;;;;;;14.77;7.26;;;;;;;;;;356260;147;859844;-60
2021/05/11 00:25:40;;;;;;;13.24;7.09;;;;;;;;;;354323;147;865211;-61
2021/05/11 00:26:42;;;;;;;13.57;7.40;;;;;;;;;;345966;155;867279;-61
2021/05/11 00:27:44;;;;;;;14.35;7.49;;;;;;;;;;354221;150;866846;-62
2021/05/11 00:28:45;;;;;;;19.46;8.20;;;;;;;;;;359150;147;858100;-61
2021/05/11 00:29:47;;;;;;;14.84;7.45;;;;;;;;;;356200;148;859988;-61
2021/05/11 00:30:50;;;;;;;13.72;7.79;;;;;;;;;;355900;149;857476;-62
2021/05/11 00:31:51;;;;;;;13.56;6.88;;;;;;;;;;356495;148;865096;-62
2021/05/11 00:32:53;;;;;;;13.76;7.19;;;;;;;;;;357577;149;865079;-63
2021/05/11 00:33:55;;;;;;;14.83;7.75;;;;;;;;;;356475;148;866561;-62
2021/05/11 00:34:56;;;;;;;16.69;7.40;;;;;;;;;;357087;147;865886;-62
2021/05/11 00:35:58;;;;;;;15.94;7.10;;;;;;;;;;355018;149;859426;-62
2021/05/11 00:36:59;;;;;;;16.90;6.92;;;;;;;;;;344584;152;865086;-62
2021/05/11 00:38:01;;;;;;;11.54;7.09;;;;;;;;;;346665;154;865574;-62
2021/05/11 00:39:03;;;;;;;14.26;6.81;;;;;;;;;;348770;150;865108;-61
2021/05/11 00:40:06;;;;;;;11.94;6.79;;;;;;;;;;352062;151;866539;-62
2021/05/11 00:41:07;;;;;;;14.24;7.18;;;;;;;;;;356451;148;866561;-61
2021/05/11 00:42:09;;;;;;;13.31;7.75;;;;;;;;;;352886;152;858683;-61
2021/05/11 00:43:10;;;;;;;12.11;6.77;;;;;;;;;;356455;147;857638;-61
2021/05/11 00:44:14;;;;;;;14.12;7.84;;;;;;;;;;355503;148;861989;-61
2021/05/11 00:45:15;;;;;;;15.46;7.44;;;;;;;;;;354393;147;859191;-61
2021/05/11 00:46:18;;;;;;;15.61;7.51;;;;;;;;;;356882;150;857748;-61
2021/05/11 00:47:20;;;;;;;16.02;7.29;;;;;;;;;;357175;147;857910;-61
2021/05/11 00:48:21;;;;;;;15.27;8.40;;;;;;;;;;354102;150;857376;-61
2021/05/11 00:49:23;;;;;;;17.06;7.51;;;;;;;;;;356587;147;857424;-63
2021/05/11 00:50:25;;;;;;;14.31;7.32;;;;;;;;;;362626;147;857486;-61
2021/05/11 00:51:27;;;;;;;17.42;7.69;;;;;;;;;;358000;148;857367;-61
2021/05/11 00:52:29;;;;;;;15.56;7.54;;;;;;;;;;354163;149;857581;-64
2021/05/11 00:53:30;;;;;;;15.53;7.47;;;;;;;;;;348251;153;860009;-64
2021/05/11 00:54:33;;;;;;;13.21;7.24;;;;;;;;;;350120;149;857917;-64
2021/05/11 00:55:34;;;;;;;12.86;7.68;;;;;;;;;;354900;149;860561;-64
2021/05/11 00:56:37;;;;;;;17.32;8.55;;;;;;;;;;346982;150;858823;-64
2021/05/11 00:57:38;;;;;;;17.27;7.95;;;;;;;;;;343405;153;857393;-64
2021/05/11 00:58:40;;;;;;;11.43;7.37;;;;;;;;;;346369;155;857447;-64
2021/05/11 00:59:42;;;;;;;13.97;7.85;;;;;;;;;;346863;153;857901;-64
2021/05/11 01:00:44;;;;;;;12.63;7.89;;;;;;;;;;354598;149;858870;-64
2021/05/11 01:01:46;;;;;;;17.81;8.21;;;;;;;;;;358820;150;858252;-64
2021/05/11 01:02:47;;;;;;;11.46;7.48;;;;;;;;;;357935;149;865143;-64
2021/05/11 01:03:49;;;;;;;17.46;8.16;;;;;;;;;;355460;150;858217;-63
2021/05/11 01:04:51;;;;;;;16.87;8.19;;;;;;;;;;355284;149;865988;-63
2021/05/11 01:05:52;;;;;;;12.93;7.83;;;;;;;;;;356680;147;865767;-63
2021/05/11 01:06:55;;;;;;;15.53;8.31;;;;;;;;;;355139;148;857163;-63
2021/05/11 01:07:56;;;;;;;14.69;8.15;;;;;;;;;;344116;154;857370;-66
2021/05/11 01:08:58;;;;;;;20.92;8.47;;;;;;;;;;353695;149;859971;-64
2021/05/11 01:10:00;;;;;;;13.14;7.75;;;;;;;;;;356945;148;865072;-64
2021/05/11 01:11:01;;;;;;;15.99;8.94;;;;;;;;;;355679;149;865009;-64
2021/05/11 01:12:03;;;;;;;13.21;7.74;;;;;;;;;;352518;152;865200;-64
2021/05/11 01:13:05;;;;;;;14.59;7.99;;;;;;;;;;355148;151;864974;-64
2021/05/11 01:14:07;;;;;;;14.09;8.40;;;;;;;;;;354496;149;861689;-64
2021/05/11 01:15:09;;;;;;;14.49;8.53;;;;;;;;;;354445;147;859255;-64
2021/05/11 01:16:11;;;;;;;15.64;7.75;;;;;;;;;;358299;150;857707;-63
2021/05/11 01:17:24;;;;;;;14.32;8.02;;;;;;;;;;354679;148;858198;-63
2021/05/11 01:18:29;;;;;;;15.24;8.24;;;;;;;;;;352915;150;857982;-63
2021/05/11 01:20:48;;;;;;;18.06;8.22;;;;;;;;;;354650;147;857737;-63
2021/05/11 01:22:03;;;;;;;17.24;9.04;;;;;;;;;;356816;149;857763;-64
2021/05/11 01:25:15;;;;;;;12.72;8.31;;;;;;;;;;356693;147;857673;-63
2021/05/11 01:26:27;;;;;;;14.94;8.14;;;;;;;;;;356735;151;865176;-64
2021/05/11 01:29:46;;;;;;;14.56;8.09;;;;;;;;;;358351;150;859099;-63
2021/05/11 01:31:08;;;;;;;15.43;8.45;;;;;;;;;;356284;149;859925;-63
2021/05/11 01:48:26;;;;;;;16.52;7.73;;;;;;;;;;355657;149;858068;-65
2021/05/11 01:49:02;;;;;;;13.81;7.78;;;;;;;;;;343990;150;858061;-65
2021/05/11 01:50:05;;;;;;;13.88;7.98;;;;;;;;;;357898;147;865155;-65
2021/05/11 01:51:17;;;;;;;14.59;8.05;;;;;;;;;;349515;153;857718;-64
2021/05/11 01:56:00;;;;;;;16.97;9.18;;;;;;;;;;357882;149;866178;-64
2021/05/11 01:57:29;;;;;;;16.07;8.50;;;;;;;;;;351363;150;865147;-64
2021/05/11 02:23:07;;;;;;;19.21;9.32;;;;;;;;;;354043;150;865032;-67
2021/05/11 02:24:11;;;;;;;17.08;8.89;;;;;;;;;;354133;147;858705;-66
2021/05/11 02:25:15;;;;;;;19.04;9.49;;;;;;;;;;357667;149;857994;-66
2021/05/11 02:26:19;;;;;;;19.12;9.07;;;;;;;;;;357225;150;865651;-65
2021/05/11 02:27:21;;;;;;;19.10;10.03;;;;;;;;;;354631;148;859623;-65
2021/05/11 02:28:23;;;;;;;18.62;9.66;;;;;;;;;;363467;147;864895;-65
2021/05/11 02:29:25;;;;;;;15.99;8.45;;;;;;;;;;349542;150;865048;-67
2021/05/11 02:30:28;;;;;;;21.85;9.84;;;;;;;;;;346601;153;857240;-65
2021/05/11 02:31:30;;;;;;;18.55;9.41;;;;;;;;;;357998;147;860820;-65
2021/05/11 02:32:32;;;;;;;19.98;9.49;;;;;;;;;;355222;147;857714;-65
2021/05/11 02:33:33;;;;;;;18.91;10.07;;;;;;;;;;351444;152;857679;-66
2021/05/11 02:34:35;;;;;;;19.56;9.14;;;;;;;;;;351331;150;858037;-66
2021/05/11 02:35:37;;;;;;;17.53;9.50;;;;;;;;;;356424;148;866031;-65
2021/05/11 02:36:40;;;;;;;16.98;9.26;;;;;;;;;;357571;149;865222;-66
2021/05/11 02:37:42;;;;;;;17.21;9.27;;;;;;;;;;354493;147;858849;-65
2021/05/11 02:38:43;;;;;;;17.42;9.12;;;;;;;;;;356063;149;865149;-66
2021/05/11 02:39:46;;;;;;;16.62;8.99;;;;;;;;;;356277;147;860081;-66
2021/05/11 02:40:48;;;;;;;20.91;8.89;;;;;;;;;;348930;150;864945;-67
2021/05/11 02:41:49;;;;;;;17.72;9.55;;;;;;;;;;353670;149;864629;-66
2021/05/11 02:42:57;;;;;;;16.96;9.38;;;;;;;;;;358411;149;866793;-66
2021/05/11 02:43:56;;;;;;;20.47;9.63;;;;;;;;;;351764;150;857855;-66
2021/05/11 02:44:58;;;;;;;16.18;9.16;;;;;;;;;;357907;147;860169;-66
2021/05/11 02:46:00;;;;;;;16.99;9.12;;;;;;;;;;357411;148;858218;-66
2021/05/11 02:47:02;;;;;;;18.13;9.96;;;;;;;;;;355084;147;857404;-66
2021/05/11 02:48:04;;;;;;;20.96;10.21;;;;;;;;;;355950;150;864668;-66
2021/05/11 02:49:07;;;;;;;20.65;10.02;;;;;;;;;;357621;147;857747;-66
2021/05/11 02:50:09;;;;;;;21.63;10.74;;;;;;;;;;353679;150;858365;-66
2021/05/11 02:51:11;;;;;;;21.11;11.17;;;;;;;;;;356455;149;860286;-66
2021/05/11 02:52:12;;;;;;;21.08;11.77;;;;;;;;;;356353;147;859607;-66
2021/05/11 02:53:14;;;;;;;20.83;12.56;;;;;;;;;;358767;150;864975;-66
2021/05/11 02:54:16;;;;;;;24.41;12.69;;;;;;;;;;352912;149;865013;-65
2021/05/11 02:55:17;;;;;;;21.58;11.47;;;;;;;;;;357776;148;864968;-66
2021/05/11 02:56:21;;;;;;;21.07;11.50;;;;;;;;;;356520;148;857776;-66
2021/05/11 02:57:22;;;;;;;19.98;10.66;;;;;;;;;;351213;150;866371;-66
2021/05/11 02:58:24;;;;;;;19.50;9.53;;;;;;;;;;354019;148;864777;-66
2021/05/11 02:59:26;;;;;;;21.01;10.74;;;;;;;;;;355988;150;857438;-65
2021/05/11 03:00:29;;;;;;;23.49;10.66;;;;;;;;;;358808;147;865600;-66
2021/05/11 03:01:31;;;;;;;22.62;10.82;;;;;;;;;;357983;147;858494;-66
2021/05/11 03:02:32;;;;;;;22.76;11.62;;;;;;;;;;360177;147;865268;-66
2021/05/11 03:03:34;;;;;;;18.23;10.62;;;;;;;;;;363164;147;864866;-67
2021/05/11 03:04:35;;;;;;;19.39;10.84;;;;;;;;;;358399;147;857324;-67
2021/05/11 03:05:37;;;;;;;21.57;11.28;;;;;;;;;;354219;142;863802;-60
2021/05/11 03:06:40;;;;;;;21.84;11.31;;;;;;;;;;352471;152;864817;-61
2021/05/11 03:07:42;;;;;;;19.81;10.54;;;;;;;;;;358964;147;857281;-60
2021/05/11 03:08:44;;;;;;;20.21;11.09;;;;;;;;;;359343;147;866762;-61
2021/05/11 03:09:46;;;;;;;18.55;10.38;;;;;;;;;;358802;147;858511;-58
2021/05/11 03:10:48;;;;;;;22.66;10.46;;;;;;;;;;352732;150;857489;-58
2021/05/11 03:11:49;;;;;;;20.03;10.57;;;;;;;;;;350662;150;865899;-59
2021/05/11 03:12:51;;;;;;;21.26;10.08;;;;;;;;;;357167;148;864879;-59
2021/05/11 03:13:52;;;;;;;20.44;9.61;;;;;;;;;;349881;151;864714;-59
2021/05/11 03:14:54;;;;;;;23.16;11.64;;;;;;;;;;348874;153;857425;-59
2021/05/11 03:15:55;;;;;;;23.06;11.55;;;;;;;;;;356623;148;857810;-58
2021/05/11 03:16:57;;;;;;;25.55;11.67;;;;;;;;;;349515;150;864872;-59
2021/05/11 03:17:59;;;;;;;21.36;11.26;;;;;;;;;;347651;151;864893;-59
2021/05/11 03:19:00;;;;;;;23.57;10.61;;;;;;;;;;343433;155;857274;-58
2021/05/11 03:20:03;;;;;;;17.01;9.91;;;;;;;;;;354120;148;857308;-60
2021/05/11 03:21:05;;;;;;;14.25;9.21;;;;;;;;;;356355;148;857260;-59
2021/05/11 03:22:07;;;;;;;22.69;9.71;;;;;;;;;;356831;150;857530;-60
2021/05/11 03:23:09;;;;;;;15.70;9.13;;;;;;;;;;357215;150;860018;-60
2021/05/11 03:24:11;;;;;;;17.98;9.12;;;;;;;;;;356774;148;860118;-59
2021/05/11 03:25:13;;;;;;;21.81;9.91;;;;;;;;;;354496;148;857463;-59
2021/05/11 03:26:15;;;;;;;15.48;9.50;;;;;;;;;;359083;148;857816;-60
2021/05/11 03:27:17;;;;;;;18.82;9.81;;;;;;;;;;356945;148;857902;-58
2021/05/11 03:28:18;;;;;;;16.94;9.45;;;;;;;;;;356422;148;857335;-58
2021/05/11 03:29:20;;;;;;;16.30;9.31;;;;;;;;;;349540;151;860114;-60
2021/05/11 03:30:22;;;;;;;18.18;9.85;;;;;;;;;;357380;148;857672;-59
2021/05/11 03:31:23;;;;;;;16.79;9.40;;;;;;;;;;356891;148;857437;-59
2021/05/11 03:32:25;;;;;;;16.33;9.01;;;;;;;;;;351371;150;866907;-58
2021/05/11 03:33:26;;;;;;;19.81;9.99;;;;;;;;;;362211;148;858583;-60
2021/05/11 03:34:28;;;;;;;19.51;10.01;;;;;;;;;;356591;150;859560;-59
2021/05/11 03:35:29;;;;;;;20.61;10.54;;;;;;;;;;356281;150;865052;-60
2021/05/11 03:36:32;;;;;;;17.15;10.38;;;;;;;;;;358696;148;857356;-60
2021/05/11 03:37:34;;;;;;;17.46;10.18;;;;;;;;;;359678;148;865064;-59
2021/05/11 03:38:36;;;;;;;19.66;9.49;;;;;;;;;;356395;150;866000;-60
2021/05/11 03:39:39;;;;;;;20.31;9.89;;;;;;;;;;355884;148;866171;-61
2021/05/11 03:40:41;;;;;;;17.08;8.99;;;;;;;;;;356281;150;857404;-61
2021/05/11 03:41:49;;;;;;;15.55;8.47;;;;;;;;;;353846;151;857266;-59
2021/05/11 03:42:55;;;;;;;18.09;10.01;;;;;;;;;;354460;148;857432;-60
2021/05/11 03:44:01;;;;;;;17.12;9.08;;;;;;;;;;349158;151;858601;-59
2021/05/11 03:45:02;;;;;;;16.87;8.59;;;;;;;;;;355983;148;857321;-59
2021/05/11 03:46:07;;;;;;;16.96;7.77;;;;;;;;;;358298;148;857161;-61
2021/05/11 03:47:06;;;;;;;12.79;7.16;;;;;;;;;;356599;148;865043;-60
2021/05/11 03:48:07;;;;;;;12.74;7.39;;;;;;;;;;362456;148;857371;-60
2021/05/11 03:49:09;;;;;;;11.37;7.64;;;;;;;;;;356085;149;865158;-60
2021/05/11 03:50:14;;;;;;;13.04;6.78;;;;;;;;;;355139;149;860943;-59
2021/05/11 03:51:16;;;;;;;14.43;7.38;;;;;;;;;;351111;149;857455;-58
2021/05/11 03:52:18;;;;;;;11.94;6.46;;;;;;;;;;356414;148;857583;-59
2021/05/11 03:53:20;;;;;;;11.45;6.35;;;;;;;;;;353744;151;858323;-59
2021/05/11 03:54:21;;;;;;;9.24;6.54;;;;;;;;;;355650;149;857200;-60
2021/05/11 03:55:23;;;;;;;11.36;5.88;;;;;;;;;;355934;148;864919;-59
2021/05/11 03:56:25;;;;;;;12.41;7.09;;;;;;;;;;357118;148;857326;-60
2021/05/11 03:57:27;;;;;;;10.01;6.58;;;;;;;;;;356179;148;857271;-61
2021/05/11 03:58:28;;;;;;;12.06;7.13;;;;;;;;;;348927;151;857265;-59
2021/05/11 03:59:30;;;;;;;14.25;6.29;;;;;;;;;;356719;151;857732;-59
2021/05/11 04:00:32;;;;;;;10.97;6.31;;;;;;;;;;355700;148;865069;-59
2021/05/11 04:01:33;;;;;;;12.91;6.21;;;;;;;;;;355804;150;857395;-60
2021/05/11 04:02:35;;;;;;;11.71;6.19;;;;;;;;;;353214;149;857954;-61
2021/05/11 04:03:37;;;;;;;8.42;5.91;;;;;;;;;;356014;148;865859;-60
2021/05/11 04:04:39;;;;;;;9.58;5.83;;;;;;;;;;356071;148;858565;-60
2021/05/11 04:05:40;;;;;;;10.60;5.97;;;;;;;;;;355548;151;857336;-61
2021/05/11 04:06:45;;;;;;;12.00;6.30;;;;;;;;;;354689;151;857333;-59
2021/05/11 04:07:47;;;;;;;10.36;6.02;;;;;;;;;;355644;148;857274;-61
2021/05/11 04:08:56;;;;;;;11.49;6.57;;;;;;;;;;349099;151;859648;-60
2021/05/11 04:09:58;;;;;;;10.54;5.81;;;;;;;;;;355799;150;857319;-60
2021/05/11 04:11:14;;;;;;;10.66;5.94;;;;;;;;;;355308;148;860096;-58
2021/05/11 04:12:19;;;;;;;10.31;6.16;;;;;;;;;;354248;148;865518;-62
2021/05/11 04:13:33;;;;;;;11.50;6.21;;;;;;;;;;353903;150;857785;-61
2021/05/11 04:16:56;;;;;;;11.56;6.41;;;;;;;;;;354478;149;865424;-63
2021/05/11 04:17:58;;;;;;;8.84;5.60;;;;;;;;;;354440;149;859275;-61
2021/05/11 04:18:59;;;;;;;13.80;6.18;;;;;;;;;;357808;149;866493;-62
2021/05/11 04:20:01;;;;;;;11.85;6.52;;;;;;;;;;356909;148;859012;-63
2021/05/11 04:21:03;;;;;;;11.44;6.16;;;;;;;;;;355021;148;858724;-59
2021/05/11 04:22:05;;;;;;;7.85;5.57;;;;;;;;;;356030;151;857949;-61
2021/05/11 04:23:06;;;;;;;9.15;5.77;;;;;;;;;;356610;148;857472;-61
2021/05/11 04:24:08;;;;;;;12.35;5.99;;;;;;;;;;356432;150;859029;-64
2021/05/11 04:25:10;;;;;;;12.64;5.78;;;;;;;;;;354133;148;859078;-60
2021/05/11 04:26:12;;;;;;;8.13;5.41;;;;;;;;;;351912;150;865151;-62
2021/05/11 04:27:14;;;;;;;8.26;5.20;;;;;;;;;;357034;148;856641;-60
2021/05/11 04:28:16;;;;;;;11.79;4.62;;;;;;;;;;349161;152;857481;-60
2021/05/11 04:29:18;;;;;;;10.65;5.34;;;;;;;;;;355941;148;865132;-62
2021/05/11 04:30:21;;;;;;;9.93;5.44;;;;;;;;;;356987;149;857385;-61
2021/05/11 04:31:23;;;;;;;10.49;5.90;;;;;;;;;;356252;148;857327;-60
2021/05/11 04:32:24;;;;;;;7.39;4.69;;;;;;;;;;355191;148;858015;-60
2021/05/11 04:33:26;;;;;;;7.29;4.68;;;;;;;;;;356047;148;857411;-60
2021/05/11 04:34:28;;;;;;;7.53;4.35;;;;;;;;;;356789;148;857435;-60
2021/05/11 04:35:30;;;;;;;9.30;4.93;;;;;;;;;;356094;148;857176;-60
2021/05/11 04:36:33;;;;;;;8.06;4.63;;;;;;;;;;355085;148;866571;-59
2021/05/11 04:37:35;;;;;;;10.64;4.60;;;;;;;;;;356590;148;858043;-58
2021/05/11 04:38:38;;;;;;;8.59;4.49;;;;;;;;;;356914;148;857363;-62
2021/05/11 04:39:39;;;;;;;6.48;4.54;;;;;;;;;;355384;148;866315;-62
2021/05/11 04:40:41;;;;;;;12.99;4.83;;;;;;;;;;349267;150;857446;-63
2021/05/11 04:41:43;;;;;;;8.78;5.04;;;;;;;;;;353899;151;858490;-68
2021/05/11 04:42:45;;;;;;;9.15;4.77;;;;;;;;;;356038;151;865829;-67
2021/05/11 04:43:48;;;;;;;9.41;5.19;;;;;;;;;;348617;151;857976;-64
2021/05/11 04:44:52;;;;;;;7.93;4.28;;;;;;;;;;343222;153;865042;-63
2021/05/11 04:46:05;;;;;;;9.37;4.84;;;;;;;;;;336924;156;858689;-65
2021/05/11 04:47:03;;;;;;;9.59;4.95;;;;;;;;;;354174;151;858210;-66
2021/05/11 04:48:01;;;;;;;10.32;5.03;;;;;;;;;;355307;150;857733;-64
2021/05/11 04:49:03;;;;;;;10.21;4.69;;;;;;;;;;356189;148;857316;-63
2021/05/11 04:50:05;;;;;;;6.03;4.23;;;;;;;;;;356435;148;857966;-65
2021/05/11 04:51:06;;;;;;;8.73;3.99;;;;;;;;;;355915;148;857753;-63
2021/05/11 04:52:08;;;;;;;7.26;4.46;;;;;;;;;;356268;148;858101;-64
2021/05/11 04:53:09;;;;;;;9.79;3.81;;;;;;;;;;360333;148;857937;-64
2021/05/11 04:54:12;;;;;;;7.41;3.94;;;;;;;;;;350744;150;857615;-66
2021/05/11 04:55:14;;;;;;;6.92;3.82;;;;;;;;;;350091;151;858405;-66
2021/05/11 04:56:16;;;;;;;6.53;3.65;;;;;;;;;;352779;149;866741;-68
2021/05/11 04:57:18;;;;;;;6.49;3.65;;;;;;;;;;357845;148;857336;-68
2021/05/11 04:58:19;;;;;;;8.92;4.19;;;;;;;;;;355896;148;866655;-64
2021/05/11 04:59:21;;;;;;;8.42;3.95;;;;;;;;;;356905;151;865001;-64
2021/05/11 05:00:24;;;;;;;6.93;3.72;;;;;;;;;;356633;148;866544;-64
2021/05/11 05:01:26;;;;;;;6.33;3.63;;;;;;;;;;356514;148;857336;-66
2021/05/11 05:02:28;;;;;;;5.53;3.14;;;;;;;;;;356835;148;858876;-65
2021/05/11 05:03:31;;;;;;;6.27;3.61;;;;;;;;;;355060;150;866757;-65
2021/05/11 05:04:35;;;;;;;5.16;3.32;;;;;;;;;;355232;148;858634;-65
2021/05/11 05:05:36;;;;;;;7.64;3.56;;;;;;;;;;356918;148;859995;-68
2021/05/11 05:06:38;;;;;;;5.08;3.59;;;;;;;;;;355968;149;857231;-67
2021/05/11 05:07:40;;;;;;;5.19;3.32;;;;;;;;;;357154;149;858960;-68
2021/05/11 05:08:41;;;;;;;7.46;3.34;;;;;;;;;;356128;146;857369;-66
2021/05/11 05:09:43;;;;;;;5.47;3.29;;;;;;;;;;356440;148;856339;-66
2021/05/11 05:10:45;;;;;;;7.19;3.30;;;;;;;;;;357020;148;857250;-67
2021/05/11 05:11:47;;;;;;;6.39;3.71;;;;;;;;;;356833;148;858179;-66
2021/05/11 05:12:49;;;;;;;4.12;3.10;;;;;;;;;;355855;150;858861;-66
2021/05/11 05:13:50;;;;;;;5.34;3.41;;;;;;;;;;354960;150;859053;-65
2021/05/11 05:14:52;;;;;;;7.38;3.30;;;;;;;;;;350077;151;865811;-65
2021/05/11 05:15:54;;;;;;;9.09;3.50;;;;;;;;;;356463;150;859607;-66
2021/05/11 05:16:55;;;;;;;6.58;3.29;;;;;;;;;;356890;148;860208;-64
2021/05/11 05:17:58;;;;;;;8.80;3.39;;;;;;;;;;355417;148;859487;-65
2021/05/11 05:18:59;;;;;;;7.39;3.12;;;;;;;;;;352465;150;857672;-67
2021/05/11 05:20:02;;;;;;;6.51;3.28;;;;;;;;;;356572;148;857393;-64
2021/05/11 05:21:07;;;;;;;6.71;3.47;;;;;;;;;;355474;148;858793;-66
2021/05/11 05:22:08;;;;;;;6.96;3.07;;;;;;;;;;353664;150;859202;-66
2021/05/11 05:23:10;;;;;;;11.60;3.46;;;;;;;;;;349498;150;859584;-67
2021/05/11 05:24:15;;;;;;;7.00;3.53;;;;;;;;;;356368;150;859505;-66
2021/05/11 05:25:22;;;;;;;5.16;3.09;;;;;;;;;;356580;148;864988;-67
2021/05/11 05:26:22;;;;;;;5.84;3.48;;;;;;;;;;348691;150;857415;-67
2021/05/11 05:27:38;;;;;;;5.20;3.04;;;;;;;;;;356568;151;860155;-66
2021/05/11 05:28:27;;;;;;;6.04;3.22;;;;;;;;;;356290;150;859212;-67
2021/05/11 05:29:29;;;;;;;4.90;2.68;;;;;;;;;;350008;150;857961;-66
2021/05/11 05:30:31;;;;;;;7.38;3.49;;;;;;;;;;355469;148;857316;-66
2021/05/11 05:31:33;;;;;;;5.24;2.94;;;;;;;;;;355790;148;857257;-69
2021/05/11 05:32:34;;;;;;;7.29;3.21;;;;;;;;;;356834;148;866582;-67
2021/05/11 05:33:37;;;;;;;5.73;3.24;;;;;;;;;;356071;150;859537;-66
2021/05/11 05:34:38;;;;;;;10.78;3.29;;;;;;;;;;353062;148;857758;-66
2021/05/11 05:35:40;;;;;;;5.57;3.10;;;;;;;;;;357657;148;858831;-66
2021/05/11 05:36:43;;;;;;;5.20;3.03;;;;;;;;;;356844;148;857941;-67
2021/05/11 05:37:45;;;;;;;6.41;3.18;;;;;;;;;;356116;148;865040;-67
2021/05/11 05:38:47;;;;;;;9.32;3.37;;;;;;;;;;355750;151;857906;-67
2021/05/11 05:39:52;;;;;;;5.67;3.34;;;;;;;;;;356911;148;857327;-67
2021/05/11 05:40:58;;;;;;;7.33;2.92;;;;;;;;;;356437;148;857351;-67
2021/05/11 05:41:59;;;;;;;6.09;3.53;;;;;;;;;;349230;153;864853;-64
2021/05/11 05:43:01;;;;;;;6.57;3.26;;;;;;;;;;355756;148;857270;-66
2021/05/11 05:44:03;;;;;;;4.87;3.51;;;;;;;;;;349214;151;859031;-68
2021/05/11 05:45:05;;;;;;;7.89;3.63;;;;;;;;;;353586;148;858498;-66
2021/05/11 05:46:07;;;;;;;5.53;3.06;;;;;;;;;;356459;150;857952;-66
2021/05/11 05:47:08;;;;;;;6.63;3.32;;;;;;;;;;353378;150;858792;-66
2021/05/11 05:48:10;;;;;;;6.34;3.15;;;;;;;;;;359600;148;857436;-67
2021/05/11 05:49:12;;;;;;;5.08;2.86;;;;;;;;;;355151;150;857378;-67
2021/05/11 05:50:13;;;;;;;5.40;2.74;;;;;;;;;;352169;150;859596;-67
2021/05/11 05:51:15;;;;;;;5.30;2.64;;;;;;;;;;354256;148;857519;-67
2021/05/11 05:52:34;;;;;;;4.91;2.91;;;;;;;;;;356863;148;859009;-67
2021/05/11 05:53:27;;;;;;;7.85;2.84;;;;;;;;;;352537;150;857792;-65
2021/05/11 05:54:27;;;;;;;6.01;2.99;;;;;;;;;;355960;148;857354;-65
2021/05/11 05:55:29;;;;;;;4.98;2.66;;;;;;;;;;354999;148;857376;-67
2021/05/11 05:56:31;;;;;;;3.94;2.59;;;;;;;;;;357106;151;858174;-67
2021/05/11 05:57:32;;;;;;;4.08;2.76;;;;;;;;;;356550;148;857473;-66
2021/05/11 05:58:34;;;;;;;5.26;2.88;;;;;;;;;;356320;151;866233;-68
2021/05/11 05:59:39;;;;;;;5.93;2.56;;;;;;;;;;352705;151;859305;-65
2021/05/11 06:00:40;;;;;;;7.03;2.60;;;;;;;;;;355838;150;860054;-67
2021/05/11 06:01:41;;;;;;;3.24;2.39;;;;;;;;;;359469;148;864811;-65
2021/05/11 06:02:45;;;;;;;4.22;2.26;;;;;;;;;;356954;148;856888;-67
2021/05/11 06:03:51;;;;;;;4.17;2.24;;;;;;;;;;357042;148;857617;-65
2021/05/11 06:04:53;;;;;;;5.38;2.88;;;;;;;;;;356961;151;857620;-66
2021/05/11 06:05:54;;;;;;;4.76;2.76;;;;;;;;;;355090;148;857791;-66
2021/05/11 06:06:56;;;;;;;5.12;2.37;;;;;;;;;;355509;148;865752;-65
2021/05/11 06:07:57;;;;;;;3.54;2.24;;;;;;;;;;355661;151;865889;-66
2021/05/11 06:09:00;;;;;;;3.90;2.59;;;;;;;;;;356419;148;857709;-64
2021/05/11 06:10:02;;;;;;;4.28;2.50;;;;;;;;;;356934;150;864752;-65
2021/05/11 06:11:20;;;;;;;4.11;2.30;;;;;;;;;;356983;150;864929;-63
2021/05/11 06:12:21;;;;;;;4.84;2.68;;;;;;;;;;347845;152;859818;-66
2021/05/11 06:13:22;;;;;;;6.46;2.58;;;;;;;;;;350549;151;857357;-66
2021/05/11 06:18:04;;;;;;;3.54;2.25;;;;;;;;;;354838;148;859840;-65
2021/05/11 06:19:06;;;;;;;6.29;2.63;;;;;;;;;;350749;153;858036;-64
2021/05/11 06:20:09;;;;;;;6.14;2.51;;;;;;;;;;353496;148;858952;-63
2021/05/11 06:21:11;;;;;;;4.49;2.22;;;;;;;;;;356013;150;859166;-64
2021/05/11 06:22:12;;;;;;;5.98;2.26;;;;;;;;;;358221;148;856608;-62
2021/05/11 06:23:14;;;;;;;3.43;2.00;;;;;;;;;;358474;148;863898;-62
2021/05/11 06:24:16;;;;;;;8.92;2.02;;;;;;;;;;354359;150;863998;-63
2021/05/11 06:25:17;;;;;;;3.32;2.06;;;;;;;;;;351133;151;856358;-64
2021/05/11 06:26:20;;;;;;;2.56;1.75;;;;;;;;;;355532;148;856185;-65
2021/05/11 06:27:21;;;;;;;4.74;2.16;;;;;;;;;;354733;148;856129;-62
2021/05/11 06:28:24;;;;;;;4.31;2.11;;;;;;;;;;354684;149;864280;-67
2021/05/11 06:29:28;;;;;;;3.39;1.99;;;;;;;;;;356555;150;856688;-62
2021/05/11 06:30:30;;;;;;;3.19;1.89;;;;;;;;;;356026;150;856119;-69
2021/05/11 06:33:29;;;;;;;2.23;1.34;;;;;;;16.09;31.37;100410.13;372372;142;875001;-61
2021/05/11 06:34:31;;;;;;;3.89;1.76;;;;;;;16.06;30.83;100421.52;362722;146;857356;-60
2021/05/11 06:35:34;;;;;;;3.74;2.07;;;;;;;16.08;31.50;100413.63;364074;147;859222;-61
2021/05/11 06:36:36;;;;;;;3.76;1.94;;;;;;;16.15;32.08;100421.30;364197;146;860099;-64
2021/05/11 06:37:38;;;;;;;3.05;1.64;;;;;;;16.24;31.08;100424.59;363957;147;858893;-62
2021/05/11 06:38:40;;;;;;;2.48;1.73;;;;;;;16.35;31.04;100414.73;365783;147;865457;-62
2021/05/11 06:39:45;;;;;;;7.81;2.84;;;;;;;16.35;31.04;100414.73;364507;147;866266;-61
2021/05/11 06:41:05;;;;;;;11.56;2.74;;;;;;;16.43;31.88;100428.47;352631;149;864947;-60
2021/05/11 06:42:07;;;;;;;5.30;2.31;;;;;;;16.49;31.53;100423.09;353105;150;859671;-60
2021/05/11 06:43:09;;;;;;;7.36;2.60;;;;;;;16.56;31.10;100428.16;354134;149;864954;-60
2021/05/11 06:44:24;;;;;;;6.75;2.17;;;;;;;16.63;31.07;100430.59;358955;149;864979;-63
2021/05/11 06:46:05;;;;;;;9.14;2.31;;;;;;;16.63;31.07;100430.59;355622;149;857474;-60
2021/05/11 06:48:01;;;;;;;3.38;1.78;;;;;;;16.70;30.72;100425.21;354330;151;857341;-60
2021/05/11 06:53:30;;;;;;;3.33;1.79;;;;;;;16.92;30.89;100413.28;348582;153;857184;-63
2021/05/11 06:54:32;;;;;;;6.55;1.70;;;;;;;17.02;30.24;100413.06;349352;152;857626;-61
2021/05/11 06:55:36;;;;;;;3.72;1.70;;;;;;;17.05;29.25;100410.36;348844;153;857467;-62
2021/05/11 06:56:40;;;;;;;3.98;1.69;;;;;;;17.06;29.69;100420.80;348890;153;864772;-60
2021/05/11 06:57:41;;;;;;;3.82;1.67;;;;;;;17.06;29.69;100420.80;350287;152;858891;-61
2021/05/11 06:58:43;;;;;;;4.95;1.41;;;;;;;17.05;27.54;100407.75;348890;153;864733;-61
2021/05/11 06:59:45;;;;;;;4.91;1.42;;;;;;;17.06;26.32;100412.08;349446;152;864860;-60
2021/05/11 07:00:47;;;;;;;2.74;1.32;;;;;;;17.08;25.72;100416.39;350590;151;857271;-59
2021/05/11 07:01:49;;;;;;;4.32;1.44;;;;;;;17.11;25.22;100410.19;350182;152;857437;-59
2021/05/11 07:02:52;;;;;;;4.23;1.58;;;;;;;17.11;25.22;100410.19;350023;152;864771;-60